sensor_id;sensor_type;location;lat;lon;timestamp;temperature;humidity
947;DHT22;460;48.734;9.152;2023-03-01T00:01:27;-0.90;88.10
947;DHT22;460;48.734;9.152;2023-03-01T00:03:57;-0.90;87.40
947;DHT22;460;48.734;9.152;2023-03-01T00:06:25;-0.90;86.70
947;DHT22;460;48.734;9.152;2023-03-01T00:08:52;-1.00;87.20
947;DHT22;460;48.734;9.152;2023-03-01T00:11:20;-0.90;95.40
947;DHT22;460;48.734;9.152;2023-03-01T00:13:50;-1.50;92.40
947;DHT22;460;48.734;9.152;2023-03-01T00:16:19;-1.00;87.60
947;DHT22;460;48.734;9.152;2023-03-01T00:18:47;-1.20;92.50
947;DHT22;460;48.734;9.152;2023-03-01T00:21:15;-1.10;87.20
947;DHT22;460;48.734;9.152;2023-03-01T00:23:42;-1.00;87.40
947;DHT22;460;48.734;9.152;2023-03-01T00:26:12;-1.10;97.10
947;DHT22;460;48.734;9.152;2023-03-01T00:28:39;-1.10;88.40
947;DHT22;460;48.734;9.152;2023-03-01T00:31:07;-1.10;88.60
947;DHT22;460;48.734;9.152;2023-03-01T00:33:35;-1.20;97.20
947;DHT22;460;48.734;9.152;2023-03-01T00:36:02;-1.20;90.00
947;DHT22;460;48.734;9.152;2023-03-01T00:38:33;-1.30;90.20
947;DHT22;460;48.734;9.152;2023-03-01T00:41:03;-1.30;90.40
947;DHT22;460;48.734;9.152;2023-03-01T00:43:30;-1.40;90.70
947;DHT22;460;48.734;9.152;2023-03-01T00:46:02;-1.30;91.10
947;DHT22;460;48.734;9.152;2023-03-01T00:48:29;-1.30;91.20
947;DHT22;460;48.734;9.152;2023-03-01T00:50:55;-1.40;91.40
947;DHT22;460;48.734;9.152;2023-03-01T00:53:22;-1.40;95.40
947;DHT22;460;48.734;9.152;2023-03-01T00:55:50;-1.40;91.50
947;DHT22;460;48.734;9.152;2023-03-01T00:58:17;-1.40;91.50
947;DHT22;460;48.734;9.152;2023-03-01T01:00:44;-1.40;91.50
947;DHT22;460;48.734;9.152;2023-03-01T01:03:11;-1.40;91.60
947;DHT22;460;48.734;9.152;2023-03-01T01:05:37;-1.40;91.50
947;DHT22;460;48.734;9.152;2023-03-01T01:08:04;-1.70;97.40
947;DHT22;460;48.734;9.152;2023-03-01T01:10:32;-1.40;91.50
947;DHT22;460;48.734;9.152;2023-03-01T01:13:01;-1.40;91.60
947;DHT22;460;48.734;9.152;2023-03-01T01:15:28;-1.50;91.60
947;DHT22;460;48.734;9.152;2023-03-01T01:17:54;-1.60;91.70
947;DHT22;460;48.734;9.152;2023-03-01T01:20:21;-1.50;92.00
947;DHT22;460;48.734;9.152;2023-03-01T01:22:48;-1.60;92.20
947;DHT22;460;48.734;9.152;2023-03-01T01:25:16;-1.60;92.30
947;DHT22;460;48.734;9.152;2023-03-01T01:27:43;-1.60;99.90
947;DHT22;460;48.734;9.152;2023-03-01T01:30:12;-1.60;92.40
947;DHT22;460;48.734;9.152;2023-03-01T01:35:06;-1.70;92.60
947;DHT22;460;48.734;9.152;2023-03-01T01:37:33;-1.60;92.90
947;DHT22;460;48.734;9.152;2023-03-01T01:40:01;-1.50;92.40
947;DHT22;460;48.734;9.152;2023-03-01T01:42:29;-1.70;97.30
947;DHT22;460;48.734;9.152;2023-03-01T01:45:26;-1.70;99.90
947;DHT22;460;48.734;9.152;2023-03-01T01:47:55;-1.60;92.60
947;DHT22;460;48.734;9.152;2023-03-01T01:50:24;-1.70;99.90
947;DHT22;460;48.734;9.152;2023-03-01T01:52:52;-1.70;92.80
947;DHT22;460;48.734;9.152;2023-03-01T01:55:21;-1.70;92.80
947;DHT22;460;48.734;9.152;2023-03-01T01:57:52;-1.60;99.90
947;DHT22;460;48.734;9.152;2023-03-01T02:00:23;-2.30;99.90
947;DHT22;460;48.734;9.152;2023-03-01T02:02:54;-1.60;93.20
947;DHT22;460;48.734;9.152;2023-03-01T02:05:28;-1.50;99.90
947;DHT22;460;48.734;9.152;2023-03-01T02:07:57;-1.50;93.10
947;DHT22;460;48.734;9.152;2023-03-01T02:10:25;-1.50;96.00
947;DHT22;460;48.734;9.152;2023-03-01T02:12:54;-1.40;93.30
947;DHT22;460;48.734;9.152;2023-03-01T02:15:23;-1.40;93.30
947;DHT22;460;48.734;9.152;2023-03-01T02:17:54;-1.40;93.20
947;DHT22;460;48.734;9.152;2023-03-01T02:20:27;-1.40;93.00
947;DHT22;460;48.734;9.152;2023-03-01T02:25:33;-1.80;99.90
947;DHT22;460;48.734;9.152;2023-03-01T02:28:10;-1.40;93.10
947;DHT22;460;48.734;9.152;2023-03-01T02:30:39;-1.40;93.00
947;DHT22;460;48.734;9.152;2023-03-01T02:35:54;-1.30;92.70
947;DHT22;460;48.734;9.152;2023-03-01T02:38:23;-1.20;93.20
947;DHT22;460;48.734;9.152;2023-03-01T02:40:51;-1.20;92.90
947;DHT22;460;48.734;9.152;2023-03-01T02:43:21;-1.30;93.10
947;DHT22;460;48.734;9.152;2023-03-01T02:45:52;-1.10;97.10
947;DHT22;460;48.734;9.152;2023-03-01T02:51:00;-1.00;93.10
947;DHT22;460;48.734;9.152;2023-03-01T02:53:35;-1.00;96.90
947;DHT22;460;48.734;9.152;2023-03-01T02:56:07;-1.00;93.30
947;DHT22;460;48.734;9.152;2023-03-01T02:58:39;-0.80;93.00
947;DHT22;460;48.734;9.152;2023-03-01T03:01:13;-0.10;97.90
947;DHT22;460;48.734;9.152;2023-03-01T03:03:41;-0.70;93.10
947;DHT22;460;48.734;9.152;2023-03-01T03:06:08;-0.60;92.90
947;DHT22;460;48.734;9.152;2023-03-01T03:08:35;-0.50;92.70
947;DHT22;460;48.734;9.152;2023-03-01T03:11:02;-0.40;92.30
947;DHT22;460;48.734;9.152;2023-03-01T03:13:29;-0.50;92.30
947;DHT22;460;48.734;9.152;2023-03-01T03:15:56;-0.60;92.50
947;DHT22;460;48.734;9.152;2023-03-01T03:18:25;-0.60;92.60
947;DHT22;460;48.734;9.152;2023-03-01T03:20:53;-0.50;92.60
947;DHT22;460;48.734;9.152;2023-03-01T03:23:21;-0.60;92.60
947;DHT22;460;48.734;9.152;2023-03-01T03:25:49;-0.60;92.70
947;DHT22;460;48.734;9.152;2023-03-01T03:28:18;-0.50;92.60
947;DHT22;460;48.734;9.152;2023-03-01T03:30:45;-0.50;92.40
947;DHT22;460;48.734;9.152;2023-03-01T03:33:13;-0.50;92.40
947;DHT22;460;48.734;9.152;2023-03-01T03:35:43;-0.40;92.30
947;DHT22;460;48.734;9.152;2023-03-01T03:38:12;-0.40;92.30
947;DHT22;460;48.734;9.152;2023-03-01T03:40:45;-0.40;91.90
947;DHT22;460;48.734;9.152;2023-03-01T03:43:14;-0.20;91.70
947;DHT22;460;48.734;9.152;2023-03-01T03:48:09;-0.20;91.30
947;DHT22;460;48.734;9.152;2023-03-01T03:50:38;-0.20;95.50
947;DHT22;460;48.734;9.152;2023-03-01T03:53:09;-0.20;91.70
947;DHT22;460;48.734;9.152;2023-03-01T03:58:08;-0.30;91.80
947;DHT22;460;48.734;9.152;2023-03-01T04:00:38;-0.30;91.90
947;DHT22;460;48.734;9.152;2023-03-01T04:03:07;-0.30;99.30
947;DHT22;460;48.734;9.152;2023-03-01T04:05:37;-0.30;92.00
947;DHT22;460;48.734;9.152;2023-03-01T04:08:07;-0.40;92.10
947;DHT22;460;48.734;9.152;2023-03-01T04:10:36;-0.40;92.20
947;DHT22;460;48.734;9.152;2023-03-01T04:13:03;-0.50;92.00
947;DHT22;460;48.734;9.152;2023-03-01T04:15:31;-0.60;96.00
947;DHT22;460;48.734;9.152;2023-03-01T04:17:58;-0.50;92.20
947;DHT22;460;48.734;9.152;2023-03-01T04:20:27;-0.60;92.20
947;DHT22;460;48.734;9.152;2023-03-01T04:22:58;-0.60;92.40
947;DHT22;460;48.734;9.152;2023-03-01T04:25:26;-0.60;92.40
947;DHT22;460;48.734;9.152;2023-03-01T04:27:53;-0.60;92.40
947;DHT22;460;48.734;9.152;2023-03-01T04:30:20;-0.60;92.50
947;DHT22;460;48.734;9.152;2023-03-01T04:32:50;-0.60;92.40
947;DHT22;460;48.734;9.152;2023-03-01T04:35:17;-0.60;92.30
947;DHT22;460;48.734;9.152;2023-03-01T04:37:44;-0.50;99.90
947;DHT22;460;48.734;9.152;2023-03-01T04:40:12;-0.20;99.90
947;DHT22;460;48.734;9.152;2023-03-01T04:42:43;-0.70;99.30
947;DHT22;460;48.734;9.152;2023-03-01T04:45:10;-0.50;96.10
947;DHT22;460;48.734;9.152;2023-03-01T04:47:39;-0.60;92.70
947;DHT22;460;48.734;9.152;2023-03-01T04:50:07;-0.60;92.50
947;DHT22;460;48.734;9.152;2023-03-01T04:55:02;-0.60;92.30
947;DHT22;460;48.734;9.152;2023-03-01T04:57:29;-0.60;92.60
947;DHT22;460;48.734;9.152;2023-03-01T04:59:57;-0.60;92.70
947;DHT22;460;48.734;9.152;2023-03-01T05:02:24;-0.60;92.90
947;DHT22;460;48.734;9.152;2023-03-01T05:04:51;-0.60;93.20
947;DHT22;460;48.734;9.152;2023-03-01T05:07:17;-0.60;92.90
947;DHT22;460;48.734;9.152;2023-03-01T05:09:45;-0.50;93.00
947;DHT22;460;48.734;9.152;2023-03-01T05:12:13;-0.50;93.00
947;DHT22;460;48.734;9.152;2023-03-01T05:14:39;-0.40;93.00
947;DHT22;460;48.734;9.152;2023-03-01T05:17:08;-0.30;96.30
947;DHT22;460;48.734;9.152;2023-03-01T05:19:35;-0.20;92.70
947;DHT22;460;48.734;9.152;2023-03-01T05:22:01;-0.10;92.30
947;DHT22;460;48.734;9.152;2023-03-01T05:24:30;0.40;99.20
947;DHT22;460;48.734;9.152;2023-03-01T05:26:57;0.20;91.50
947;DHT22;460;48.734;9.152;2023-03-01T05:29:25;0.20;91.30
947;DHT22;460;48.734;9.152;2023-03-01T05:31:52;0.20;91.30
947;DHT22;460;48.734;9.152;2023-03-01T05:34:23;0.30;91.20
947;DHT22;460;48.734;9.152;2023-03-01T05:39:19;0.30;90.80
947;DHT22;460;48.734;9.152;2023-03-01T05:41:47;0.00;93.90
947;DHT22;460;48.734;9.152;2023-03-01T05:44:14;0.40;90.90
947;DHT22;460;48.734;9.152;2023-03-01T05:46:41;0.40;90.80
947;DHT22;460;48.734;9.152;2023-03-01T05:49:08;0.40;90.70
947;DHT22;460;48.734;9.152;2023-03-01T05:51:36;0.40;90.60
947;DHT22;460;48.734;9.152;2023-03-01T05:54:03;0.50;90.60
947;DHT22;460;48.734;9.152;2023-03-01T05:56:32;0.50;90.60
947;DHT22;460;48.734;9.152;2023-03-01T05:59:00;0.40;90.30
947;DHT22;460;48.734;9.152;2023-03-01T06:01:27;0.40;90.50
947;DHT22;460;48.734;9.152;2023-03-01T06:03:54;0.60;94.50
947;DHT22;460;48.734;9.152;2023-03-01T06:06:22;0.40;90.60
947;DHT22;460;48.734;9.152;2023-03-01T06:08:51;0.40;90.60
947;DHT22;460;48.734;9.152;2023-03-01T06:11:18;0.60;98.30
947;DHT22;460;48.734;9.152;2023-03-01T06:13:45;0.50;90.70
947;DHT22;460;48.734;9.152;2023-03-01T06:16:13;0.50;90.60
947;DHT22;460;48.734;9.152;2023-03-01T06:18:40;0.40;90.60
947;DHT22;460;48.734;9.152;2023-03-01T06:21:08;0.40;90.80
947;DHT22;460;48.734;9.152;2023-03-01T06:23:35;0.40;90.80
947;DHT22;460;48.734;9.152;2023-03-01T06:26:07;0.40;91.20
947;DHT22;460;48.734;9.152;2023-03-01T06:28:34;1.10;94.80
947;DHT22;460;48.734;9.152;2023-03-01T06:31:01;0.30;97.50
947;DHT22;460;48.734;9.152;2023-03-01T06:33:28;0.50;90.70
947;DHT22;460;48.734;9.152;2023-03-01T06:35:55;0.60;90.40
947;DHT22;460;48.734;9.152;2023-03-01T06:38:22;0.80;90.20
947;DHT22;460;48.734;9.152;2023-03-01T06:40:52;0.70;90.20
947;DHT22;460;48.734;9.152;2023-03-01T06:43:20;0.70;90.40
947;DHT22;460;48.734;9.152;2023-03-01T06:45:47;0.70;90.50
947;DHT22;460;48.734;9.152;2023-03-01T06:48:14;0.70;90.40
947;DHT22;460;48.734;9.152;2023-03-01T06:50:41;0.70;90.80
947;DHT22;460;48.734;9.152;2023-03-01T06:53:08;0.70;91.00
947;DHT22;460;48.734;9.152;2023-03-01T06:55:34;0.60;90.70
947;DHT22;460;48.734;9.152;2023-03-01T06:58:02;0.80;98.20
947;DHT22;460;48.734;9.152;2023-03-01T07:00:30;0.80;90.40
947;DHT22;460;48.734;9.152;2023-03-01T07:02:59;0.80;90.30
947;DHT22;460;48.734;9.152;2023-03-01T07:05:27;0.80;97.30
947;DHT22;460;48.734;9.152;2023-03-01T07:07:54;0.80;90.40
947;DHT22;460;48.734;9.152;2023-03-01T07:10:22;0.90;90.40
947;DHT22;460;48.734;9.152;2023-03-01T07:12:48;0.90;90.40
947;DHT22;460;48.734;9.152;2023-03-01T07:15:15;0.90;90.00
947;DHT22;460;48.734;9.152;2023-03-01T07:17:43;0.90;90.00
947;DHT22;460;48.734;9.152;2023-03-01T07:20:13;1.10;90.00
947;DHT22;460;48.734;9.152;2023-03-01T07:22:40;1.10;89.90
947;DHT22;460;48.734;9.152;2023-03-01T07:25:08;1.10;89.70
947;DHT22;460;48.734;9.152;2023-03-01T07:27:35;1.10;92.80
947;DHT22;460;48.734;9.152;2023-03-01T07:30:03;1.50;97.30
947;DHT22;460;48.734;9.152;2023-03-01T07:32:30;1.20;89.20
947;DHT22;460;48.734;9.152;2023-03-01T07:34:59;1.30;88.40
947;DHT22;460;48.734;9.152;2023-03-01T07:37:26;3.40;90.40
947;DHT22;460;48.734;9.152;2023-03-01T07:39:53;1.20;88.60
947;DHT22;460;48.734;9.152;2023-03-01T07:42:19;1.20;89.10
947;DHT22;460;48.734;9.152;2023-03-01T07:44:46;1.30;89.30
947;DHT22;460;48.734;9.152;2023-03-01T07:47:13;1.80;96.60
947;DHT22;460;48.734;9.152;2023-03-01T07:49:40;1.60;92.30
947;DHT22;460;48.734;9.152;2023-03-01T07:52:09;1.80;93.10
947;DHT22;460;48.734;9.152;2023-03-01T07:54:36;1.60;87.50
947;DHT22;460;48.734;9.152;2023-03-01T07:57:03;1.50;88.00
947;DHT22;460;48.734;9.152;2023-03-01T07:59:30;1.60;87.40
947;DHT22;460;48.734;9.152;2023-03-01T08:01:58;1.70;87.40
947;DHT22;460;48.734;9.152;2023-03-01T08:04:25;1.70;87.80
947;DHT22;460;48.734;9.152;2023-03-01T08:06:52;1.90;96.60
947;DHT22;460;48.734;9.152;2023-03-01T08:09:20;1.90;87.60
947;DHT22;460;48.734;9.152;2023-03-01T08:11:47;2.00;86.70
947;DHT22;460;48.734;9.152;2023-03-01T08:14:14;2.00;86.70
947;DHT22;460;48.734;9.152;2023-03-01T08:16:41;1.90;87.50
947;DHT22;460;48.734;9.152;2023-03-01T08:19:09;2.00;87.00
947;DHT22;460;48.734;9.152;2023-03-01T08:21:37;2.00;86.90
947;DHT22;460;48.734;9.152;2023-03-01T08:24:05;2.00;87.00
947;DHT22;460;48.734;9.152;2023-03-01T08:26:33;2.10;92.40
947;DHT22;460;48.734;9.152;2023-03-01T08:29:00;2.00;87.20
947;DHT22;460;48.734;9.152;2023-03-01T08:31:29;2.00;87.20
947;DHT22;460;48.734;9.152;2023-03-01T08:33:57;2.40;95.30
947;DHT22;460;48.734;9.152;2023-03-01T08:36:26;2.40;85.10
947;DHT22;460;48.734;9.152;2023-03-01T08:38:54;2.30;85.30
947;DHT22;460;48.734;9.152;2023-03-01T08:41:21;2.50;85.20
947;DHT22;460;48.734;9.152;2023-03-01T08:43:49;2.30;85.70
947;DHT22;460;48.734;9.152;2023-03-01T08:46:16;2.40;91.10
947;DHT22;460;48.734;9.152;2023-03-01T08:48:43;2.30;86.30
947;DHT22;460;48.734;9.152;2023-03-01T08:51:11;2.20;85.90
947;DHT22;460;48.734;9.152;2023-03-01T08:53:38;2.40;86.20
947;DHT22;460;48.734;9.152;2023-03-01T08:56:06;2.30;85.90
947;DHT22;460;48.734;9.152;2023-03-01T08:58:33;2.10;86.30
947;DHT22;460;48.734;9.152;2023-03-01T09:01:06;2.10;94.40
947;DHT22;460;48.734;9.152;2023-03-01T09:03:33;2.20;86.50
947;DHT22;460;48.734;9.152;2023-03-01T09:06:00;2.40;86.80
947;DHT22;460;48.734;9.152;2023-03-01T09:08:27;2.80;85.70
947;DHT22;460;48.734;9.152;2023-03-01T09:10:54;2.80;84.80
947;DHT22;460;48.734;9.152;2023-03-01T09:13:21;2.90;84.80
947;DHT22;460;48.734;9.152;2023-03-01T09:15:50;3.10;84.80
947;DHT22;460;48.734;9.152;2023-03-01T09:18:18;3.20;83.20
947;DHT22;460;48.734;9.152;2023-03-01T09:20:45;2.90;82.20
947;DHT22;460;48.734;9.152;2023-03-01T09:23:12;2.60;84.10
947;DHT22;460;48.734;9.152;2023-03-01T09:25:38;2.90;84.30
947;DHT22;460;48.734;9.152;2023-03-01T09:28:05;3.10;82.90
947;DHT22;460;48.734;9.152;2023-03-01T09:30:32;3.10;82.70
947;DHT22;460;48.734;9.152;2023-03-01T09:32:59;3.00;83.80
947;DHT22;460;48.734;9.152;2023-03-01T09:35:27;3.10;83.70
947;DHT22;460;48.734;9.152;2023-03-01T09:37:54;3.40;83.10
947;DHT22;460;48.734;9.152;2023-03-01T09:40:24;3.60;81.90
947;DHT22;460;48.734;9.152;2023-03-01T09:42:59;3.70;79.90
947;DHT22;460;48.734;9.152;2023-03-01T09:45:29;3.70;79.30
947;DHT22;460;48.734;9.152;2023-03-01T09:48:00;3.60;79.40
947;DHT22;460;48.734;9.152;2023-03-01T09:50:33;3.60;80.00
947;DHT22;460;48.734;9.152;2023-03-01T09:53:03;3.70;79.60
947;DHT22;460;48.734;9.152;2023-03-01T09:55:37;3.70;79.90
947;DHT22;460;48.734;9.152;2023-03-01T09:58:38;3.80;79.60
947;DHT22;460;48.734;9.152;2023-03-01T10:01:30;3.90;78.30
947;DHT22;460;48.734;9.152;2023-03-01T10:04:26;4.00;78.20
947;DHT22;460;48.734;9.152;2023-03-01T10:07:05;3.90;79.40
947;DHT22;460;48.734;9.152;2023-03-01T10:09:38;4.00;82.10
947;DHT22;460;48.734;9.152;2023-03-01T10:12:10;4.10;78.10
947;DHT22;460;48.734;9.152;2023-03-01T10:14:39;4.20;77.40
947;DHT22;460;48.734;9.152;2023-03-01T10:17:15;4.10;77.50
947;DHT22;460;48.734;9.152;2023-03-01T10:19:45;4.20;77.40
947;DHT22;460;48.734;9.152;2023-03-01T10:22:16;4.10;77.40
947;DHT22;460;48.734;9.152;2023-03-01T10:24:47;4.20;76.90
947;DHT22;460;48.734;9.152;2023-03-01T10:27:19;4.30;77.00
947;DHT22;460;48.734;9.152;2023-03-01T10:29:53;4.20;77.30
947;DHT22;460;48.734;9.152;2023-03-01T10:32:23;4.20;77.00
947;DHT22;460;48.734;9.152;2023-03-01T10:34:50;4.30;77.50
947;DHT22;460;48.734;9.152;2023-03-01T10:37:20;4.40;77.80
947;DHT22;460;48.734;9.152;2023-03-01T10:39:57;4.50;76.50
947;DHT22;460;48.734;9.152;2023-03-01T10:42:28;4.50;77.90
947;DHT22;460;48.734;9.152;2023-03-01T10:44:55;4.40;77.30
947;DHT22;460;48.734;9.152;2023-03-01T10:47:24;4.50;76.80
947;DHT22;460;48.734;9.152;2023-03-01T10:49:54;4.60;76.80
947;DHT22;460;48.734;9.152;2023-03-01T10:52:25;4.60;76.40
947;DHT22;460;48.734;9.152;2023-03-01T10:54:54;4.70;76.10
947;DHT22;460;48.734;9.152;2023-03-01T10:57:29;4.60;75.40
947;DHT22;460;48.734;9.152;2023-03-01T11:00:14;4.60;76.30
947;DHT22;460;48.734;9.152;2023-03-01T11:02:42;4.60;76.40
947;DHT22;460;48.734;9.152;2023-03-01T11:05:18;4.70;76.10
947;DHT22;460;48.734;9.152;2023-03-01T11:07:51;4.70;76.00
947;DHT22;460;48.734;9.152;2023-03-01T11:10:20;4.80;76.30
947;DHT22;460;48.734;9.152;2023-03-01T11:12:48;4.80;75.60
947;DHT22;460;48.734;9.152;2023-03-01T11:15:24;4.80;75.30
947;DHT22;460;48.734;9.152;2023-03-01T11:17:51;4.90;75.50
947;DHT22;460;48.734;9.152;2023-03-01T11:20:25;4.90;75.20
947;DHT22;460;48.734;9.152;2023-03-01T11:22:56;4.90;75.30
947;DHT22;460;48.734;9.152;2023-03-01T11:25:26;4.80;76.10
947;DHT22;460;48.734;9.152;2023-03-01T11:27:55;4.90;75.10
947;DHT22;460;48.734;9.152;2023-03-01T11:30:27;4.90;76.30
947;DHT22;460;48.734;9.152;2023-03-01T11:33:03;4.90;75.40
947;DHT22;460;48.734;9.152;2023-03-01T11:35:32;5.10;76.10
947;DHT22;460;48.734;9.152;2023-03-01T11:38:14;5.10;76.30
947;DHT22;460;48.734;9.152;2023-03-01T11:40:46;5.20;75.00
947;DHT22;460;48.734;9.152;2023-03-01T11:43:19;5.20;74.40
947;DHT22;460;48.734;9.152;2023-03-01T11:46:08;5.20;74.10
947;DHT22;460;48.734;9.152;2023-03-01T11:48:48;5.20;73.40
947;DHT22;460;48.734;9.152;2023-03-01T11:51:23;5.20;73.40
947;DHT22;460;48.734;9.152;2023-03-01T11:54:04;5.20;73.80
947;DHT22;460;48.734;9.152;2023-03-01T11:56:38;5.30;73.40
947;DHT22;460;48.734;9.152;2023-03-01T11:59:40;5.30;73.80
947;DHT22;460;48.734;9.152;2023-03-01T12:02:34;5.40;74.00
947;DHT22;460;48.734;9.152;2023-03-01T12:08:08;5.50;74.10
947;DHT22;460;48.734;9.152;2023-03-01T12:10:46;5.50;74.30
947;DHT22;460;48.734;9.152;2023-03-01T12:13:43;5.60;73.70
947;DHT22;460;48.734;9.152;2023-03-01T12:16:23;5.60;73.00
947;DHT22;460;48.734;9.152;2023-03-01T12:19:08;5.60;74.00
947;DHT22;460;48.734;9.152;2023-03-01T12:21:58;5.60;73.50
947;DHT22;460;48.734;9.152;2023-03-01T12:28:01;5.80;72.60
947;DHT22;460;48.734;9.152;2023-03-01T12:30:39;5.80;72.30
947;DHT22;460;48.734;9.152;2023-03-01T12:33:20;5.80;73.30
947;DHT22;460;48.734;9.152;2023-03-01T12:36:22;5.80;74.10
947;DHT22;460;48.734;9.152;2023-03-01T12:39:02;5.90;73.30
947;DHT22;460;48.734;9.152;2023-03-01T12:41:48;6.00;73.40
947;DHT22;460;48.734;9.152;2023-03-01T12:44:33;6.00;74.90
947;DHT22;460;48.734;9.152;2023-03-01T12:47:15;6.10;72.80
947;DHT22;460;48.734;9.152;2023-03-01T12:49:46;6.20;73.40
947;DHT22;460;48.734;9.152;2023-03-01T12:52:19;6.20;73.80
947;DHT22;460;48.734;9.152;2023-03-01T12:54:49;6.20;73.40
947;DHT22;460;48.734;9.152;2023-03-01T12:57:21;6.30;71.70
947;DHT22;460;48.734;9.152;2023-03-01T13:00:02;6.30;71.10
947;DHT22;460;48.734;9.152;2023-03-01T13:02:38;6.30;71.90
947;DHT22;460;48.734;9.152;2023-03-01T13:05:24;6.40;72.30
947;DHT22;460;48.734;9.152;2023-03-01T13:07:58;6.30;72.30
947;DHT22;460;48.734;9.152;2023-03-01T13:10:33;6.40;71.90
947;DHT22;460;48.734;9.152;2023-03-01T13:13:11;6.40;72.70
947;DHT22;460;48.734;9.152;2023-03-01T13:15:40;6.50;72.60
947;DHT22;460;48.734;9.152;2023-03-01T13:18:27;6.50;72.50
947;DHT22;460;48.734;9.152;2023-03-01T13:20:55;6.60;71.40
947;DHT22;460;48.734;9.152;2023-03-01T13:23:28;6.60;72.40
947;DHT22;460;48.734;9.152;2023-03-01T13:26:06;6.60;71.10
947;DHT22;460;48.734;9.152;2023-03-01T13:28:51;6.60;71.60
947;DHT22;460;48.734;9.152;2023-03-01T13:34:53;6.80;71.10
947;DHT22;460;48.734;9.152;2023-03-01T13:37:28;6.90;70.20
947;DHT22;460;48.734;9.152;2023-03-01T13:40:03;6.90;69.50
947;DHT22;460;48.734;9.152;2023-03-01T13:42:34;7.00;69.50
947;DHT22;460;48.734;9.152;2023-03-01T13:45:04;7.10;69.80
947;DHT22;460;48.734;9.152;2023-03-01T13:47:34;7.00;70.90
947;DHT22;460;48.734;9.152;2023-03-01T13:50:04;6.90;71.30
947;DHT22;460;48.734;9.152;2023-03-01T13:52:38;7.00;70.00
947;DHT22;460;48.734;9.152;2023-03-01T13:55:16;7.10;70.30
947;DHT22;460;48.734;9.152;2023-03-01T13:57:46;7.10;70.90
947;DHT22;460;48.734;9.152;2023-03-01T14:00:29;7.00;70.30
947;DHT22;460;48.734;9.152;2023-03-01T14:03:01;7.10;70.20
947;DHT22;460;48.734;9.152;2023-03-01T14:05:31;7.00;70.70
947;DHT22;460;48.734;9.152;2023-03-01T14:07:57;6.60;73.40
947;DHT22;460;48.734;9.152;2023-03-01T14:10:32;6.80;71.10
947;DHT22;460;48.734;9.152;2023-03-01T14:13:12;6.90;72.00
947;DHT22;460;48.734;9.152;2023-03-01T14:15:52;6.90;71.60
947;DHT22;460;48.734;9.152;2023-03-01T14:18:24;6.90;71.10
947;DHT22;460;48.734;9.152;2023-03-01T14:20:53;7.00;71.30
947;DHT22;460;48.734;9.152;2023-03-01T14:23:22;7.00;71.40
947;DHT22;460;48.734;9.152;2023-03-01T14:25:51;7.00;71.60
947;DHT22;460;48.734;9.152;2023-03-01T14:28:20;6.90;71.90
947;DHT22;460;48.734;9.152;2023-03-01T14:30:49;6.90;71.30
947;DHT22;460;48.734;9.152;2023-03-01T14:33:23;6.90;72.40
947;DHT22;460;48.734;9.152;2023-03-01T14:35:59;7.00;71.90
947;DHT22;460;48.734;9.152;2023-03-01T14:38:32;7.10;72.10
947;DHT22;460;48.734;9.152;2023-03-01T14:41:02;7.10;71.90
947;DHT22;460;48.734;9.152;2023-03-01T14:43:31;7.00;71.80
947;DHT22;460;48.734;9.152;2023-03-01T14:45:59;7.00;70.60
947;DHT22;460;48.734;9.152;2023-03-01T14:48:27;6.90;71.90
947;DHT22;460;48.734;9.152;2023-03-01T14:50:54;6.70;72.20
947;DHT22;460;48.734;9.152;2023-03-01T14:53:26;7.00;70.20
947;DHT22;460;48.734;9.152;2023-03-01T14:55:55;6.90;71.10
947;DHT22;460;48.734;9.152;2023-03-01T14:58:25;7.10;71.60
947;DHT22;460;48.734;9.152;2023-03-01T15:00:53;7.50;71.30
947;DHT22;460;48.734;9.152;2023-03-01T15:03:26;7.40;71.10
947;DHT22;460;48.734;9.152;2023-03-01T15:05:54;7.30;70.50
947;DHT22;460;48.734;9.152;2023-03-01T15:08:24;7.20;70.50
947;DHT22;460;48.734;9.152;2023-03-01T15:11:01;7.30;69.90
947;DHT22;460;48.734;9.152;2023-03-01T15:13:31;7.40;70.30
947;DHT22;460;48.734;9.152;2023-03-01T15:16:04;8.00;69.70
947;DHT22;460;48.734;9.152;2023-03-01T15:18:32;8.80;69.30
947;DHT22;460;48.734;9.152;2023-03-01T15:21:06;9.30;67.10
947;DHT22;460;48.734;9.152;2023-03-01T15:23:37;9.50;65.20
947;DHT22;460;48.734;9.152;2023-03-01T15:26:05;9.90;67.00
947;DHT22;460;48.734;9.152;2023-03-01T15:28:34;10.30;63.60
947;DHT22;460;48.734;9.152;2023-03-01T15:31:12;10.60;63.30
947;DHT22;460;48.734;9.152;2023-03-01T15:33:43;10.60;62.10
947;DHT22;460;48.734;9.152;2023-03-01T15:36:35;10.80;63.10
947;DHT22;460;48.734;9.152;2023-03-01T15:39:04;11.00;62.40
947;DHT22;460;48.734;9.152;2023-03-01T15:41:37;11.10;69.00
947;DHT22;460;48.734;9.152;2023-03-01T15:44:15;10.90;60.60
947;DHT22;460;48.734;9.152;2023-03-01T15:46:46;10.90;60.20
947;DHT22;460;48.734;9.152;2023-03-01T15:49:26;11.10;59.50
947;DHT22;460;48.734;9.152;2023-03-01T15:51:54;10.80;60.50
947;DHT22;460;48.734;9.152;2023-03-01T15:54:25;10.40;60.20
947;DHT22;460;48.734;9.152;2023-03-01T15:56:52;10.00;59.50
947;DHT22;460;48.734;9.152;2023-03-01T15:59:19;9.40;61.30
947;DHT22;460;48.734;9.152;2023-03-01T16:01:48;9.00;61.80
947;DHT22;460;48.734;9.152;2023-03-01T16:04:17;8.50;62.70
947;DHT22;460;48.734;9.152;2023-03-01T16:06:48;8.20;63.50
947;DHT22;460;48.734;9.152;2023-03-01T16:09:20;7.90;64.60
947;DHT22;460;48.734;9.152;2023-03-01T16:11:49;7.80;64.40
947;DHT22;460;48.734;9.152;2023-03-01T16:14:16;7.60;64.10
947;DHT22;460;48.734;9.152;2023-03-01T16:16:43;7.40;64.40
947;DHT22;460;48.734;9.152;2023-03-01T16:19:10;7.20;65.00
947;DHT22;460;48.734;9.152;2023-03-01T16:21:37;7.00;65.40
947;DHT22;460;48.734;9.152;2023-03-01T16:24:05;6.80;65.50
947;DHT22;460;48.734;9.152;2023-03-01T16:26:32;6.80;65.50
947;DHT22;460;48.734;9.152;2023-03-01T16:29:00;6.70;66.30
947;DHT22;460;48.734;9.152;2023-03-01T16:31:27;6.60;66.20
947;DHT22;460;48.734;9.152;2023-03-01T16:33:54;6.50;66.10
947;DHT22;460;48.734;9.152;2023-03-01T16:36:22;6.30;67.00
947;DHT22;460;48.734;9.152;2023-03-01T16:38:50;6.30;67.30
947;DHT22;460;48.734;9.152;2023-03-01T16:41:20;6.20;67.20
947;DHT22;460;48.734;9.152;2023-03-01T16:43:48;6.10;67.40
947;DHT22;460;48.734;9.152;2023-03-01T16:46:18;6.00;68.00
947;DHT22;460;48.734;9.152;2023-03-01T16:48:46;6.00;67.20
947;DHT22;460;48.734;9.152;2023-03-01T16:51:13;6.00;67.40
947;DHT22;460;48.734;9.152;2023-03-01T16:53:40;5.90;67.80
947;DHT22;460;48.734;9.152;2023-03-01T16:56:09;5.80;68.10
947;DHT22;460;48.734;9.152;2023-03-01T16:58:37;5.70;68.80
947;DHT22;460;48.734;9.152;2023-03-01T17:01:06;5.70;69.10
947;DHT22;460;48.734;9.152;2023-03-01T17:03:34;5.60;69.50
947;DHT22;460;48.734;9.152;2023-03-01T17:06:03;5.50;69.50
947;DHT22;460;48.734;9.152;2023-03-01T17:08:29;5.60;69.30
947;DHT22;460;48.734;9.152;2023-03-01T17:11:05;5.60;68.90
947;DHT22;460;48.734;9.152;2023-03-01T17:13:33;5.50;69.70
947;DHT22;460;48.734;9.152;2023-03-01T17:16:01;5.40;69.80
947;DHT22;460;48.734;9.152;2023-03-01T17:18:28;5.30;69.70
947;DHT22;460;48.734;9.152;2023-03-01T17:20:57;5.30;70.00
947;DHT22;460;48.734;9.152;2023-03-01T17:23:23;5.30;70.00
947;DHT22;460;48.734;9.152;2023-03-01T17:25:51;5.40;79.60
947;DHT22;460;48.734;9.152;2023-03-01T17:28:20;5.20;70.60
947;DHT22;460;48.734;9.152;2023-03-01T17:30:48;5.20;70.50
947;DHT22;460;48.734;9.152;2023-03-01T17:33:15;5.10;70.80
947;DHT22;460;48.734;9.152;2023-03-01T17:35:42;5.00;70.90
947;DHT22;460;48.734;9.152;2023-03-01T17:38:13;5.00;71.60